createdAt,value
2017-06-25T00:00:21.116Z,84.20
2017-06-25T00:02:49.309Z,84.10
2017-06-25T00:05:17.504Z,84.20
2017-06-25T00:07:45.703Z,84.30
2017-06-25T00:10:14.656Z,84.40
2017-06-25T00:12:42.849Z,84.40
2017-06-25T00:15:11.056Z,84.50
2017-06-25T00:17:39.239Z,84.70
2017-06-25T00:20:08.231Z,85.90
2017-06-25T00:22:37.223Z,85.10
2017-06-25T00:25:06.183Z,85.00
2017-06-25T00:27:34.369Z,85.00
2017-06-25T00:30:02.671Z,84.90
2017-06-25T00:32:31.635Z,85.00
2017-06-25T00:34:59.820Z,85.00
2017-06-25T00:37:28.112Z,85.20
2017-06-25T00:39:56.381Z,85.10
2017-06-25T00:42:24.613Z,85.30
2017-06-25T00:44:52.805Z,85.40
2017-06-25T00:47:20.997Z,85.30
2017-06-25T00:49:49.956Z,84.90
2017-06-25T00:52:18.160Z,84.90
2017-06-25T00:54:46.346Z,85.00
2017-06-25T00:57:14.645Z,85.10
2017-06-25T00:59:42.921Z,84.90
2017-06-25T01:02:11.893Z,84.90
2017-06-25T01:04:40.082Z,84.90
2017-06-25T01:07:09.040Z,85.40
2017-06-25T01:09:37.234Z,85.40
2017-06-25T01:12:05.417Z,85.30
2017-06-25T01:14:33.621Z,85.40
2017-06-25T01:17:02.610Z,85.30
2017-06-25T01:19:30.885Z,85.30
2017-06-25T01:21:59.854Z,85.50
2017-06-25T01:24:28.041Z,85.50
2017-06-25T01:26:56.289Z,85.40
2017-06-25T01:29:24.500Z,85.60
2017-06-25T01:31:53.457Z,85.70
2017-06-25T01:34:21.685Z,85.60
2017-06-25T01:36:49.940Z,85.60
2017-06-25T01:39:18.934Z,85.90
2017-06-25T01:41:47.926Z,85.70
2017-06-25T01:44:16.920Z,85.90
2017-06-25T01:46:45.897Z,85.90
2017-06-25T01:49:14.858Z,86.20
2017-06-25T01:51:43.079Z,85.90
2017-06-25T01:54:11.269Z,85.70
2017-06-25T01:56:39.465Z,85.60
2017-06-25T01:59:07.697Z,85.60
2017-06-25T02:01:36.708Z,85.50
2017-06-25T02:04:04.905Z,85.50
2017-06-25T02:06:33.090Z,85.60
2017-06-25T02:09:01.293Z,85.80
2017-06-25T02:11:29.485Z,85.70
2017-06-25T02:13:58.445Z,86.10
2017-06-25T02:16:26.634Z,86.10
2017-06-25T02:18:54.922Z,86.10
2017-06-25T02:21:23.921Z,85.90
2017-06-25T02:23:52.909Z,85.80
2017-06-25T02:26:21.897Z,85.90
2017-06-25T02:28:50.895Z,86.10
2017-06-25T02:31:19.896Z,86.20
2017-06-25T02:33:48.878Z,86.30
2017-06-25T02:36:17.848Z,86.30
2017-06-25T02:38:46.044Z,86.30
2017-06-25T02:41:15.026Z,86.20
2017-06-25T02:43:43.320Z,86.10
2017-06-25T02:46:11.528Z,86.40
2017-06-25T02:48:39.729Z,86.20
2017-06-25T02:51:07.959Z,86.00
2017-06-25T02:53:36.953Z,86.00
2017-06-25T02:56:05.916Z,85.50
2017-06-25T02:58:34.126Z,85.50
2017-06-25T03:01:02.327Z,85.50
2017-06-25T03:03:30.521Z,85.60
2017-06-25T03:05:58.770Z,85.80
2017-06-25T03:08:27.041Z,86.50
2017-06-25T03:10:56.102Z,86.00
2017-06-25T03:13:24.299Z,85.90
2017-06-25T03:15:53.265Z,85.80
2017-06-25T03:18:21.487Z,86.60
2017-06-25T03:20:49.685Z,86.00
2017-06-25T03:23:17.886Z,86.00
2017-06-25T03:25:46.178Z,86.10
2017-06-25T03:28:14.336Z,86.40
2017-06-25T03:30:42.551Z,86.60
2017-06-25T03:33:11.533Z,86.90
2017-06-25T03:35:40.500Z,87.00
2017-06-25T03:38:08.703Z,87.00
2017-06-25T03:40:36.906Z,87.00
2017-06-25T03:43:05.773Z,86.80
2017-06-25T03:45:33.969Z,86.80
2017-06-25T03:48:02.201Z,86.60
2017-06-25T03:50:31.193Z,86.80
2017-06-25T03:53:00.151Z,86.80
2017-06-25T03:55:28.361Z,86.80
2017-06-25T03:57:57.325Z,86.50
2017-06-25T04:00:25.628Z,86.50
2017-06-25T04:02:54.598Z,86.30
2017-06-25T04:05:22.797Z,86.30
2017-06-25T04:07:51.756Z,86.40
2017-06-25T04:10:20.064Z,86.40
2017-06-25T04:12:49.051Z,86.80
2017-06-25T04:15:18.018Z,87.20
2017-06-25T04:17:46.213Z,86.80
2017-06-25T04:20:15.213Z,86.60
2017-06-25T04:22:44.172Z,86.40
2017-06-25T04:25:12.453Z,86.40
2017-06-25T04:27:40.754Z,86.20
2017-06-25T04:30:09.750Z,86.00
2017-06-25T04:32:37.945Z,86.00
2017-06-25T04:35:06.151Z,86.00
2017-06-25T04:37:34.341Z,85.70
2017-06-25T04:40:02.541Z,85.70
2017-06-25T04:42:31.540Z,85.70
2017-06-25T04:45:00.524Z,86.00
2017-06-25T04:47:29.518Z,86.00
2017-06-25T04:49:57.796Z,86.00
2017-06-25T04:52:26.753Z,86.10
2017-06-25T04:54:54.956Z,86.00
2017-06-25T04:57:23.945Z,86.60
2017-06-25T04:59:52.904Z,86.70
2017-06-25T05:02:21.108Z,86.60
2017-06-25T05:04:50.105Z,86.60
2017-06-25T05:07:19.097Z,87.00
2017-06-25T05:09:48.090Z,87.10
2017-06-25T05:12:17.084Z,88.00
2017-06-25T05:14:46.077Z,89.30
2017-06-25T05:17:15.174Z,90.00
2017-06-25T05:19:44.187Z,90.10
2017-06-25T05:22:13.124Z,90.30
2017-06-25T05:24:41.434Z,90.30
2017-06-25T05:27:10.400Z,90.60
2017-06-25T05:29:38.693Z,90.60
2017-06-25T05:32:07.659Z,91.20
2017-06-25T05:34:35.853Z,90.80
2017-06-25T05:37:04.824Z,90.90
2017-06-25T05:39:33.028Z,91.20
2017-06-25T05:42:01.993Z,91.10
2017-06-25T05:44:30.292Z,91.10
2017-06-25T05:46:58.489Z,91.30
2017-06-25T05:49:26.688Z,91.30
2017-06-25T05:51:54.915Z,91.30
2017-06-25T05:54:23.905Z,91.70
2017-06-25T05:56:52.898Z,91.50
2017-06-25T05:59:21.865Z,91.60
2017-06-25T06:01:50.076Z,91.50
2017-06-25T06:04:19.063Z,91.10
2017-06-25T06:06:48.024Z,91.00
2017-06-25T06:09:16.216Z,91.00
2017-06-25T06:11:44.418Z,91.00
2017-06-25T06:14:12.672Z,90.90
2017-06-25T06:16:41.665Z,90.60
2017-06-25T06:19:10.661Z,90.60
2017-06-25T06:21:39.652Z,90.50
2017-06-25T06:24:08.640Z,90.90
2017-06-25T06:26:37.632Z,91.00
2017-06-25T06:29:05.825Z,90.60
2017-06-25T06:31:34.824Z,90.40
2017-06-25T06:34:03.072Z,90.40
2017-06-25T06:36:32.065Z,90.70
2017-06-25T06:39:01.056Z,90.20
2017-06-25T06:41:29.332Z,90.20
2017-06-25T06:43:58.432Z,90.40
2017-06-25T06:46:27.385Z,90.40
2017-06-25T06:48:55.597Z,90.30
2017-06-25T06:51:24.548Z,90.80
2017-06-25T06:53:52.758Z,90.80
2017-06-25T06:56:20.936Z,90.70
2017-06-25T06:58:49.892Z,90.70
2017-06-25T07:01:18.105Z,90.70
2017-06-25T07:03:47.091Z,90.70
2017-06-25T07:06:16.040Z,90.30
2017-06-25T07:08:44.230Z,90.30
2017-06-25T07:11:12.413Z,90.10
2017-06-25T07:13:42.105Z,89.90
2017-06-25T07:16:10.294Z,89.90
2017-06-25T07:18:38.479Z,89.80
2017-06-25T07:21:07.440Z,89.30
2017-06-25T07:23:35.644Z,89.00
2017-06-25T07:26:04.636Z,90.00
2017-06-25T07:28:33.629Z,89.30
2017-06-25T07:31:02.625Z,89.00
2017-06-25T07:33:30.819Z,89.00
2017-06-25T07:35:59.009Z,88.40
2017-06-25T07:38:27.208Z,87.70
2017-06-25T07:40:55.394Z,87.00
2017-06-25T07:43:23.605Z,86.00
2017-06-25T07:45:52.663Z,85.70
2017-06-25T07:48:20.863Z,84.90
2017-06-25T07:50:49.825Z,84.20
2017-06-25T07:53:18.037Z,83.30
2017-06-25T07:55:46.225Z,82.40
2017-06-25T07:58:14.413Z,82.20
2017-06-25T08:00:42.649Z,82.00
2017-06-25T08:03:11.600Z,82.70
2017-06-25T08:05:39.795Z,81.90
2017-06-25T08:08:07.981Z,82.40
2017-06-25T08:10:36.973Z,83.30
2017-06-25T08:13:04.431Z,83.30
2017-06-25T08:15:31.889Z,83.80
2017-06-25T08:17:59.351Z,83.90
2017-06-25T08:20:26.766Z,84.30
2017-06-25T08:22:54.187Z,85.20
2017-06-25T08:25:21.714Z,85.70
2017-06-25T08:27:49.297Z,85.70
2017-06-25T08:30:16.696Z,84.90
2017-06-25T08:32:44.112Z,85.30
2017-06-25T08:35:11.538Z,85.60
2017-06-25T08:37:38.995Z,85.30
2017-06-25T08:40:06.418Z,84.50
2017-06-25T08:42:33.832Z,85.00
2017-06-25T08:45:01.262Z,84.20
2017-06-25T08:47:28.718Z,84.20
2017-06-25T08:49:56.176Z,83.70
2017-06-25T08:52:23.634Z,84.60
2017-06-25T08:54:51.057Z,84.40
2017-06-25T08:57:18.472Z,84.70
2017-06-25T08:59:46.003Z,84.90
2017-06-25T09:02:13.422Z,85.00
2017-06-25T09:04:40.863Z,84.80
2017-06-25T09:07:09.053Z,84.60
2017-06-25T09:09:36.477Z,84.60
2017-06-25T09:12:04.005Z,84.60
2017-06-25T09:14:31.450Z,84.20
2017-06-25T09:16:58.869Z,84.50
2017-06-25T09:19:27.086Z,85.40
2017-06-25T09:21:54.510Z,85.40
2017-06-25T09:24:21.939Z,85.70
2017-06-25T09:26:50.128Z,87.10
2017-06-25T09:29:17.575Z,87.10
2017-06-25T09:31:45.810Z,86.00
2017-06-25T09:34:13.244Z,86.00
2017-06-25T09:36:40.676Z,85.70
2017-06-25T09:39:08.856Z,84.50
2017-06-25T09:41:36.285Z,84.40
2017-06-25T09:44:04.508Z,83.00
2017-06-25T09:46:31.940Z,83.00
2017-06-25T09:48:59.432Z,82.60
2017-06-25T09:51:26.873Z,83.10
2017-06-25T09:53:54.273Z,82.10
2017-06-25T09:56:21.804Z,82.40
2017-06-25T09:58:49.349Z,84.40
2017-06-25T10:01:16.780Z,85.40
2017-06-25T10:03:44.197Z,87.00
2017-06-25T10:06:11.613Z,87.20
2017-06-25T10:08:39.174Z,87.90
2017-06-25T10:11:06.590Z,88.10
2017-06-25T10:13:34.009Z,87.90
2017-06-25T10:16:01.543Z,87.80
2017-06-25T10:18:28.964Z,88.00
2017-06-25T10:20:56.452Z,87.80
2017-06-25T10:23:23.872Z,87.10
2017-06-25T10:25:51.365Z,86.90
2017-06-25T10:28:18.932Z,87.20
2017-06-25T10:30:46.351Z,86.30
2017-06-25T10:33:13.778Z,85.10
2017-06-25T10:35:41.189Z,84.80
2017-06-25T10:38:09.380Z,84.30
2017-06-25T10:40:36.903Z,84.20
2017-06-25T10:43:04.381Z,84.40
2017-06-25T10:45:31.792Z,84.20
2017-06-25T10:47:59.307Z,84.40
2017-06-25T10:53:00.734Z,84.40
2017-06-25T10:55:28.619Z,84.10
2017-06-25T10:57:56.046Z,84.20
2017-06-25T11:00:23.550Z,84.10
2017-06-25T11:03:07.391Z,84.30
2017-06-25T11:05:34.977Z,84.40
2017-06-25T11:08:02.490Z,84.10
2017-06-25T11:10:29.945Z,83.00
2017-06-25T11:12:57.377Z,83.50
2017-06-25T11:15:24.826Z,82.10
2017-06-25T11:17:52.253Z,82.20
2017-06-25T11:20:19.685Z,81.80
2017-06-25T11:22:47.873Z,81.10
2017-06-25T11:25:15.370Z,81.10
2017-06-25T11:27:43.589Z,79.50
2017-06-25T11:30:11.066Z,79.50
2017-06-25T11:32:38.490Z,78.90
2017-06-25T11:35:08.051Z,78.70
2017-06-25T11:37:35.497Z,77.60
2017-06-25T11:40:02.915Z,76.50
2017-06-25T11:42:31.105Z,74.90
2017-06-25T11:44:58.540Z,74.60
2017-06-25T11:47:25.958Z,73.70
2017-06-25T11:49:53.748Z,72.20
2017-06-25T11:52:21.170Z,72.10
2017-06-25T11:54:49.389Z,71.70
2017-06-25T11:57:17.624Z,73.00
2017-06-25T11:59:45.050Z,73.00
2017-06-25T12:02:12.518Z,73.30
2017-06-25T12:04:39.950Z,73.60
2017-06-25T12:07:07.424Z,73.50
2017-06-25T12:09:34.881Z,74.50
2017-06-25T12:12:02.358Z,75.40
2017-06-25T12:14:29.796Z,75.50
2017-06-25T12:16:57.232Z,76.10
2017-06-25T12:19:24.712Z,76.50
2017-06-25T12:21:52.160Z,77.40
2017-06-25T12:24:19.617Z,77.90
2017-06-25T12:26:47.041Z,76.90
2017-06-25T12:29:14.529Z,75.70
2017-06-25T12:31:42.185Z,75.20
2017-06-25T12:34:09.648Z,74.60
2017-06-25T12:36:37.072Z,74.50
2017-06-25T12:39:04.492Z,73.30
2017-06-25T12:41:31.915Z,73.20
2017-06-25T12:43:59.336Z,73.30
2017-06-25T12:46:27.780Z,73.20
2017-06-25T12:48:55.202Z,72.40
2017-06-25T12:51:23.689Z,73.00
2017-06-25T12:53:51.577Z,73.70
2017-06-25T12:56:19.045Z,74.20
2017-06-25T12:58:46.564Z,73.70
2017-06-25T13:01:13.985Z,74.60
2017-06-25T13:03:42.201Z,75.50
2017-06-25T13:06:09.675Z,75.30
2017-06-25T13:08:37.073Z,75.50
2017-06-25T13:11:04.499Z,76.30
2017-06-25T13:13:32.021Z,76.70
2017-06-25T13:15:59.444Z,77.20
2017-06-25T13:18:26.867Z,76.00
2017-06-25T13:20:54.293Z,76.50
2017-06-25T13:23:21.741Z,76.10
2017-06-25T13:25:49.200Z,75.60
2017-06-25T13:28:16.620Z,75.60
2017-06-25T13:30:44.050Z,75.00
2017-06-25T13:33:11.565Z,75.60
2017-06-25T13:35:39.024Z,76.00
2017-06-25T13:38:06.452Z,76.40
2017-06-25T13:40:33.944Z,76.90
2017-06-25T13:43:01.359Z,77.60
2017-06-25T13:45:28.850Z,77.50
2017-06-25T13:47:56.281Z,78.20
2017-06-25T13:50:28.686Z,78.60
2017-06-25T13:52:56.134Z,78.50
2017-06-25T13:55:23.588Z,79.50
2017-06-25T13:57:51.019Z,79.50
2017-06-25T14:00:18.438Z,81.30
2017-06-25T14:02:45.956Z,82.90
2017-06-25T14:05:13.405Z,83.00
2017-06-25T14:07:40.809Z,82.70
2017-06-25T14:10:08.333Z,82.70
2017-06-25T14:12:35.756Z,82.90
2017-06-25T14:15:03.181Z,82.80
2017-06-25T14:17:31.368Z,84.10
2017-06-25T14:19:59.584Z,84.40
2017-06-25T14:22:27.045Z,84.20
2017-06-25T14:24:54.493Z,85.20
2017-06-25T14:27:21.919Z,84.70
2017-06-25T14:29:49.410Z,85.60
2017-06-25T14:32:16.841Z,85.30
2017-06-25T14:34:44.320Z,84.90
2017-06-25T14:37:11.753Z,84.30
2017-06-25T14:39:39.179Z,83.90
2017-06-25T14:42:07.408Z,77.30
2017-06-25T14:44:34.859Z,76.80
2017-06-25T14:47:02.268Z,74.80
2017-06-25T14:49:30.478Z,73.90
2017-06-25T14:51:57.888Z,73.90
2017-06-25T14:54:26.095Z,75.10
2017-06-25T14:56:54.292Z,77.30
2017-06-25T14:59:21.716Z,77.30
2017-06-25T15:01:49.218Z,78.80
2017-06-25T15:04:16.675Z,79.20
2017-06-25T15:06:44.091Z,79.30
2017-06-25T15:09:11.513Z,78.10
2017-06-25T15:11:38.940Z,76.40
2017-06-25T15:14:06.373Z,76.60
2017-06-25T15:16:33.805Z,77.50
2017-06-25T15:19:01.301Z,77.00
2017-06-25T15:21:28.752Z,77.40
2017-06-25T15:23:56.183Z,78.80
2017-06-25T15:26:23.613Z,79.40
2017-06-25T15:28:51.825Z,81.50
2017-06-25T15:31:19.253Z,81.50
2017-06-25T15:33:47.449Z,74.20
2017-06-25T15:36:14.921Z,74.20
2017-06-25T15:38:42.358Z,66.10
2017-06-25T15:41:09.832Z,65.60
2017-06-25T15:43:37.296Z,66.90
2017-06-25T15:46:04.725Z,68.80
2017-06-25T15:48:32.244Z,71.70
2017-06-25T15:50:59.770Z,74.10
2017-06-25T15:53:27.198Z,75.40
2017-06-25T15:55:54.620Z,76.70
2017-06-25T15:58:22.056Z,78.30
2017-06-25T16:00:49.474Z,80.10
2017-06-25T16:03:16.902Z,81.40
2017-06-25T16:05:45.113Z,83.20
2017-06-25T16:08:12.667Z,83.10
2017-06-25T16:10:40.073Z,82.90
2017-06-25T16:13:08.260Z,83.60
2017-06-25T16:15:36.484Z,83.10
2017-06-25T16:18:03.907Z,83.10
2017-06-25T16:20:31.329Z,83.80
2017-06-25T16:22:59.528Z,84.20
2017-06-25T16:25:26.957Z,84.10
2017-06-25T16:27:54.384Z,84.30
2017-06-25T16:30:21.832Z,83.90
2017-06-25T16:32:49.292Z,84.30
2017-06-25T16:35:16.737Z,85.20
2017-06-25T16:37:44.268Z,85.40
2017-06-25T16:40:11.736Z,85.50
2017-06-25T16:42:39.940Z,84.90
2017-06-25T16:45:07.369Z,84.90
2017-06-25T16:47:34.800Z,85.30
2017-06-25T16:50:03.040Z,86.80
2017-06-25T16:52:30.474Z,86.70
2017-06-25T16:54:57.946Z,87.00
2017-06-25T16:57:25.402Z,87.20
2017-06-25T16:59:52.860Z,87.00
2017-06-25T17:02:20.422Z,86.50
2017-06-25T17:04:47.858Z,86.20
2017-06-25T17:07:15.308Z,87.20
2017-06-25T17:09:42.788Z,86.30
2017-06-25T17:12:10.243Z,86.40
2017-06-25T17:14:37.677Z,87.50
2017-06-25T17:17:05.135Z,87.80
2017-06-25T17:19:32.619Z,88.30
2017-06-25T17:22:00.057Z,88.80
2017-06-25T17:24:27.484Z,89.40
2017-06-25T17:26:54.901Z,89.60
2017-06-25T17:29:22.432Z,88.80
2017-06-25T17:31:49.997Z,88.80
2017-06-25T17:34:17.545Z,90.00
2017-06-25T17:36:45.009Z,90.20
2017-06-25T17:39:12.499Z,90.60
2017-06-25T17:41:39.924Z,90.90
2017-06-25T17:44:07.485Z,90.90
2017-06-25T17:46:34.908Z,90.70
2017-06-25T17:49:02.325Z,90.40
2017-06-25T17:51:29.840Z,90.50
2017-06-25T17:53:57.296Z,90.40
2017-06-25T17:56:24.720Z,90.20
2017-06-25T17:58:52.220Z,90.00
2017-06-25T18:01:19.692Z,89.60
2017-06-25T18:03:47.113Z,89.70
2017-06-25T18:06:14.580Z,90.10
2017-06-25T18:08:42.037Z,90.20
2017-06-25T18:11:10.350Z,90.10
2017-06-25T18:13:37.782Z,90.20
2017-06-25T18:16:05.343Z,90.40
2017-06-25T18:18:32.809Z,90.70
2017-06-25T18:21:00.270Z,90.70
2017-06-25T18:23:27.700Z,90.70
2017-06-25T18:25:55.157Z,91.00
2017-06-25T18:28:22.588Z,91.10
2017-06-25T18:30:50.829Z,91.20
2017-06-25T18:33:18.236Z,91.20
2017-06-25T18:35:46.466Z,91.10
2017-06-25T18:38:14.021Z,91.10
2017-06-25T18:40:41.452Z,90.70
2017-06-25T18:43:08.929Z,90.50
2017-06-25T18:45:36.393Z,90.30
2017-06-25T18:48:03.820Z,90.10
2017-06-25T18:50:32.049Z,89.90
2017-06-25T18:52:59.498Z,89.90
2017-06-25T18:55:26.925Z,89.40
2017-06-25T18:57:55.113Z,89.30
2017-06-25T19:00:22.550Z,89.30
2017-06-25T19:02:49.971Z,89.20
2017-06-25T19:05:17.405Z,89.30
2017-06-25T19:07:44.957Z,89.20
2017-06-25T19:10:12.414Z,88.80
2017-06-25T19:12:40.168Z,88.90
2017-06-25T19:15:07.601Z,88.70
2017-06-25T19:17:35.811Z,88.90
2017-06-25T19:20:03.234Z,88.80
2017-06-25T19:22:31.458Z,89.10
2017-06-25T19:24:58.876Z,89.10
2017-06-25T19:27:26.305Z,89.10
2017-06-25T19:29:53.731Z,89.30
2017-06-25T19:32:21.177Z,89.20
2017-06-25T19:34:48.622Z,88.90
2017-06-25T19:37:16.096Z,88.80
2017-06-25T19:39:43.526Z,89.20
2017-06-25T19:42:10.957Z,88.80
2017-06-25T19:44:39.183Z,89.70
2017-06-25T19:47:06.633Z,89.70
2017-06-25T19:49:34.060Z,89.50
2017-06-25T19:52:01.489Z,89.10
2017-06-25T19:54:28.929Z,88.70
2017-06-25T19:56:56.480Z,88.50
2017-06-25T19:59:23.937Z,88.30
2017-06-25T20:01:51.369Z,88.40
2017-06-25T20:04:18.862Z,88.70
2017-06-25T20:06:46.272Z,88.70
2017-06-25T20:09:14.529Z,87.40
2017-06-25T20:11:42.055Z,88.00
2017-06-25T20:14:09.525Z,88.30
2017-06-25T20:16:37.078Z,88.30
2017-06-25T20:19:04.538Z,88.30
2017-06-25T20:21:31.992Z,88.40
2017-06-25T20:23:59.449Z,88.70
2017-06-25T20:26:26.890Z,87.70
2017-06-25T20:28:54.329Z,87.90
2017-06-25T20:31:21.826Z,88.00
2017-06-25T20:33:49.266Z,87.80
2017-06-25T20:36:16.742Z,87.70
2017-06-25T20:38:44.174Z,87.80
2017-06-25T20:41:11.650Z,87.70
2017-06-25T20:43:39.107Z,87.80
2017-06-25T20:46:06.547Z,87.90
2017-06-25T20:48:33.984Z,87.60
2017-06-25T20:51:02.204Z,87.60
2017-06-25T20:53:29.761Z,87.50
2017-06-25T20:55:57.195Z,88.10
2017-06-25T20:58:25.407Z,89.80
2017-06-25T21:00:52.845Z,89.80
2017-06-25T21:03:21.081Z,91.00
2017-06-25T21:05:48.517Z,90.60
2017-06-25T21:08:15.949Z,91.00
2017-06-25T21:10:43.446Z,91.10
2017-06-25T21:13:10.885Z,91.30
2017-06-25T21:15:42.475Z,91.40
2017-06-25T21:18:12.872Z,91.50
2017-06-25T21:20:44.213Z,91.50
2017-06-25T21:23:16.945Z,91.30
2017-06-25T21:25:48.763Z,91.00
2017-06-25T21:28:16.297Z,90.90
2017-06-25T21:30:43.758Z,90.70
2017-06-25T21:35:42.691Z,91.00
2017-06-25T21:38:08.571Z,90.80
2017-06-25T21:40:34.443Z,90.70
2017-06-25T21:43:01.051Z,90.30
2017-06-25T21:45:26.924Z,90.20
2017-06-25T21:47:52.783Z,90.30
2017-06-25T21:50:18.649Z,90.50
2017-06-25T21:52:44.520Z,90.30
2017-06-25T21:55:10.403Z,90.40
2017-06-25T21:57:36.278Z,90.30
2017-06-25T22:00:02.172Z,90.30
2017-06-25T22:02:28.039Z,90.20
2017-06-25T22:04:54.847Z,90.20
2017-06-25T22:07:20.710Z,90.20
2017-06-25T22:09:46.575Z,90.10
2017-06-25T22:12:12.448Z,90.20
2017-06-25T22:14:38.415Z,90.30
2017-06-25T22:17:04.335Z,90.40
2017-06-25T22:19:30.210Z,91.00
2017-06-25T22:21:56.097Z,91.20
2017-06-25T22:24:22.722Z,90.70
2017-06-25T22:26:48.587Z,90.70
2017-06-25T22:29:14.455Z,90.70
2017-06-25T22:31:40.320Z,90.70
2017-06-25T22:34:06.171Z,90.60
2017-06-25T22:36:32.829Z,90.60
2017-06-25T22:38:59.116Z,90.60
2017-06-25T22:41:25.423Z,90.60
2017-06-25T22:43:51.798Z,90.70
2017-06-25T22:46:18.148Z,90.70
2017-06-25T22:48:45.175Z,90.40
2017-06-25T22:51:11.143Z,90.40
2017-06-25T22:53:37.182Z,90.50
2017-06-25T22:56:04.230Z,90.50
2017-06-25T22:58:30.636Z,90.30
2017-06-25T23:00:56.910Z,90.10
2017-06-25T23:03:23.260Z,90.20
2017-06-25T23:05:49.576Z,90.30
2017-06-25T23:08:15.449Z,91.00
2017-06-25T23:10:41.325Z,90.70
2017-06-25T23:13:07.728Z,90.50
2017-06-25T23:15:35.017Z,90.60
2017-06-25T23:18:01.168Z,90.70
2017-06-25T23:20:27.517Z,90.70
2017-06-25T23:22:54.170Z,90.80
2017-06-25T23:25:20.602Z,90.70
2017-06-25T23:27:47.060Z,90.80
2017-06-25T23:30:14.185Z,90.70
2017-06-25T23:32:40.641Z,90.70
2017-06-25T23:35:06.883Z,90.80
2017-06-25T23:37:32.883Z,90.80
2017-06-25T23:39:59.202Z,91.00
2017-06-25T23:42:25.545Z,91.20
2017-06-25T23:44:52.138Z,91.60
2017-06-25T23:47:18.508Z,91.60
2017-06-25T23:49:44.367Z,91.60
2017-06-25T23:52:10.740Z,91.70
2017-06-25T23:54:36.613Z,91.40
2017-06-25T23:57:03.217Z,91.50
2017-06-25T23:59:29.123Z,91.50
